Time;durP1;ratioP1;P1;durP2;ratioP2;P2;SDS_P1;SDS_P2;PMS_P1;PMS_P2;Temp;Humidity;BMP_temperature;BMP_pressure;BME280_temperature;BME280_humidity;BME280_pressure;Samples;Min_cycle;Max_cycle;Signal;HPM_P1;HPM_P2
2022/03/02 00:01:25;;;;;;;45.22;19.35;;;;;;;;;;5028197;28;20041;-79
2022/03/02 00:03:50;;;;;;;44.03;19.92;;;;;;;;;;5037210;28;20456;-78
2022/03/02 00:06:16;;;;;;;43.08;19.88;;;;;;;;;;5037231;28;20036;-78
2022/03/02 00:08:42;;;;;;;47.05;19.85;;;;;;;;;;5020634;28;20037;-78
2022/03/02 00:11:07;;;;;;;39.75;18.98;;;;;;;;;;5040628;28;20020;-79
2022/03/02 00:13:33;;;;;;;40.65;18.13;;;;;;;;;;5046691;28;20025;-79
2022/03/02 00:15:58;;;;;;;36.30;17.73;;;;;;;;;;5037099;28;20025;-78
2022/03/02 00:18:24;;;;;;;39.80;17.92;;;;;;;;;;5036844;28;20128;-78
2022/03/02 00:20:49;;;;;;;37.80;17.60;;;;;;;;;;5037514;28;20031;-79
2022/03/02 00:23:14;;;;;;;40.47;17.95;;;;;;;;;;5036999;28;20111;-78
2022/03/02 00:25:40;;;;;;;37.70;17.70;;;;;;;;;;5054637;28;20469;-79
2022/03/02 00:28:05;;;;;;;35.80;17.23;;;;;;;;;;5054567;28;20103;-79
2022/03/02 00:30:31;;;;;;;36.10;16.45;;;;;;;;;;5036655;28;20025;-78
2022/03/02 00:32:59;;;;;;;39.88;18.27;;;;;;;;;;5045775;28;20080;-78
2022/03/02 00:35:25;;;;;;;41.45;18.40;;;;;;;;;;5041168;28;20025;-78
2022/03/02 00:37:51;;;;;;;42.45;17.98;;;;;;;;;;5054526;28;20434;-79
2022/03/02 00:40:16;;;;;;;35.90;17.60;;;;;;;;;;5036469;28;20064;-79
2022/03/02 00:42:43;;;;;;;39.60;18.65;;;;;;;;;;5054297;28;20017;-79
2022/03/02 00:45:09;;;;;;;39.35;18.13;;;;;;;;;;5036146;28;20036;-78
2022/03/02 00:47:35;;;;;;;41.10;19.60;;;;;;;;;;5054140;28;20466;-79
2022/03/02 00:50:01;;;;;;;42.55;18.52;;;;;;;;;;5054179;28;20029;-79
2022/03/02 00:52:26;;;;;;;40.42;19.15;;;;;;;;;;5036601;28;20029;-79
2022/03/02 00:54:52;;;;;;;39.72;18.60;;;;;;;;;;5047110;28;20516;-79
2022/03/02 00:57:17;;;;;;;43.60;18.38;;;;;;;;;;5054109;28;20024;-79
2022/03/02 00:59:44;;;;;;;37.78;18.50;;;;;;;;;;5036794;28;20167;-78
2022/03/02 01:02:09;;;;;;;39.05;17.75;;;;;;;;;;5036166;28;20131;-79
2022/03/02 01:04:35;;;;;;;37.05;17.58;;;;;;;;;;5020023;28;20029;-78
2022/03/02 01:07:01;;;;;;;41.85;17.58;;;;;;;;;;5036835;28;20051;-79
2022/03/02 01:09:26;;;;;;;46.75;19.20;;;;;;;;;;5036195;28;20170;-78
2022/03/02 01:11:53;;;;;;;38.67;17.92;;;;;;;;;;5054526;28;20017;-79
2022/03/02 01:14:19;;;;;;;34.03;16.48;;;;;;;;;;5040771;28;20064;-79
2022/03/02 01:16:44;;;;;;;34.47;16.30;;;;;;;;;;5042866;28;20427;-78
2022/03/02 01:19:09;;;;;;;33.13;16.13;;;;;;;;;;5053771;28;20123;-78
2022/03/02 01:21:35;;;;;;;33.10;16.00;;;;;;;;;;5036389;28;20503;-79
2022/03/02 01:24:02;;;;;;;33.70;15.95;;;;;;;;;;5019662;28;20032;-79
2022/03/02 01:26:29;;;;;;;36.67;17.58;;;;;;;;;;5036600;28;20052;-79
2022/03/02 01:28:55;;;;;;;38.00;17.20;;;;;;;;;;5019857;28;20037;-78
2022/03/02 01:31:22;;;;;;;39.38;17.80;;;;;;;;;;5053812;28;20025;-78
2022/03/02 01:33:48;;;;;;;33.83;16.35;;;;;;;;;;5036275;28;20461;-78
2022/03/02 01:36:14;;;;;;;35.50;16.38;;;;;;;;;;5064768;28;20035;-77
2022/03/02 01:38:40;;;;;;;35.75;17.35;;;;;;;;;;5037046;28;20131;-78
2022/03/02 01:41:05;;;;;;;34.33;17.10;;;;;;;;;;5053796;28;20109;-79
2022/03/02 01:43:31;;;;;;;32.85;16.85;;;;;;;;;;5053442;28;20443;-78
2022/03/02 01:45:56;;;;;;;30.55;15.82;;;;;;;;;;5003105;28;20040;-78
2022/03/02 01:48:22;;;;;;;36.35;16.80;;;;;;;;;;5036016;28;20032;-78
2022/03/02 01:50:47;;;;;;;36.38;17.30;;;;;;;;;;5053593;28;20028;-77
2022/03/02 01:53:13;;;;;;;33.72;17.08;;;;;;;;;;5053689;28;20028;-78
2022/03/02 01:55:39;;;;;;;35.30;16.35;;;;;;;;;;5053908;28;20036;-78
2022/03/02 01:58:04;;;;;;;40.50;16.80;;;;;;;;;;5049531;28;20040;-78
2022/03/02 02:00:30;;;;;;;36.15;17.25;;;;;;;;;;5016143;28;20092;-78
2022/03/02 02:02:55;;;;;;;35.92;17.15;;;;;;;;;;5037340;28;20039;-78
2022/03/02 02:05:21;;;;;;;37.97;17.55;;;;;;;;;;5037184;28;20026;-78
2022/03/02 02:07:46;;;;;;;40.40;18.27;;;;;;;;;;5037184;28;20032;-78
2022/03/02 02:10:12;;;;;;;35.03;17.48;;;;;;;;;;5037149;28;20029;-78
2022/03/02 02:12:38;;;;;;;37.70;17.70;;;;;;;;;;5019282;28;20516;-78
2022/03/02 02:15:04;;;;;;;39.30;18.05;;;;;;;;;;5019863;28;20029;-79
2022/03/02 02:17:30;;;;;;;31.00;16.08;;;;;;;;;;5043147;28;20018;-79
2022/03/02 02:19:55;;;;;;;38.70;17.20;;;;;;;;;;5053773;28;20033;-79
2022/03/02 02:22:21;;;;;;;35.28;17.05;;;;;;;;;;5037401;28;20033;-79
2022/03/02 02:24:46;;;;;;;40.17;17.52;;;;;;;;;;5037001;28;20021;-79
2022/03/02 02:27:12;;;;;;;37.22;16.52;;;;;;;;;;5036596;28;20029;-79
2022/03/02 02:29:38;;;;;;;37.33;16.60;;;;;;;;;;5002786;28;20026;-78
2022/03/02 02:32:03;;;;;;;39.10;17.73;;;;;;;;;;4986600;28;20056;-79
2022/03/02 02:34:29;;;;;;;35.55;18.27;;;;;;;;;;5036712;28;20064;-78
2022/03/02 02:36:55;;;;;;;36.13;17.48;;;;;;;;;;4986419;28;20454;-78
2022/03/02 02:39:20;;;;;;;35.65;17.20;;;;;;;;;;5027673;28;20014;-78
2022/03/02 02:41:45;;;;;;;37.20;17.90;;;;;;;;;;5002543;28;20068;-78
2022/03/02 02:44:11;;;;;;;40.72;19.40;;;;;;;;;;5036527;28;20028;-79
2022/03/02 02:46:41;;;;;;;45.50;19.83;;;;;;;;;;5036498;28;20025;-79
2022/03/02 02:49:07;;;;;;;43.03;19.40;;;;;;;;;;5019275;28;20025;-80
2022/03/02 02:51:32;;;;;;;42.47;20.02;;;;;;;;;;5002443;28;20033;-79
2022/03/02 02:53:58;;;;;;;47.97;21.23;;;;;;;;;;5036556;28;20355;-79
2022/03/02 02:56:24;;;;;;;44.97;20.75;;;;;;;;;;5018527;28;20031;-79
2022/03/02 02:58:49;;;;;;;69.32;28.30;;;;;;;;;;5018901;28;20116;-78
2022/03/02 03:01:15;;;;;;;70.03;27.48;;;;;;;;;;5028986;28;20056;-77
2022/03/02 03:03:40;;;;;;;71.82;28.92;;;;;;;;;;5056321;28;20029;-78
2022/03/02 03:06:06;;;;;;;67.25;26.75;;;;;;;;;;5038253;28;20028;-81
2022/03/02 03:08:31;;;;;;;58.60;24.77;;;;;;;;;;5022367;28;20470;-79
2022/03/02 03:10:57;;;;;;;49.45;23.02;;;;;;;;;;5022365;28;20358;-79
2022/03/02 03:13:22;;;;;;;49.92;21.80;;;;;;;;;;5054507;28;20025;-79
2022/03/02 03:15:48;;;;;;;54.10;21.02;;;;;;;;;;5055964;28;20025;-80
2022/03/02 03:18:13;;;;;;;47.00;22.08;;;;;;;;;;5024007;28;20031;-80
2022/03/02 03:20:39;;;;;;;55.13;22.80;;;;;;;;;;5052855;28;20040;-81
2022/03/02 03:23:05;;;;;;;50.88;21.77;;;;;;;;;;5046384;28;20025;-81
2022/03/02 03:25:30;;;;;;;49.03;21.13;;;;;;;;;;5038230;28;20025;-81
2022/03/02 03:27:56;;;;;;;56.10;22.70;;;;;;;;;;5038033;28;20033;-79
2022/03/02 03:30:22;;;;;;;49.35;21.10;;;;;;;;;;5037867;28;20029;-79
2022/03/02 03:32:48;;;;;;;46.65;21.08;;;;;;;;;;5037914;28;20025;-80
2022/03/02 03:35:14;;;;;;;47.38;21.00;;;;;;;;;;5037568;28;20048;-80
2022/03/02 03:37:40;;;;;;;45.63;20.02;;;;;;;;;;5037873;28;20079;-80
2022/03/02 03:40:06;;;;;;;45.75;20.23;;;;;;;;;;5055346;28;20060;-80
2022/03/02 03:42:31;;;;;;;46.65;20.33;;;;;;;;;;5066515;28;20033;-80
2022/03/02 03:44:57;;;;;;;44.83;19.75;;;;;;;;;;5037984;28;20036;-80
2022/03/02 03:47:22;;;;;;;42.58;18.77;;;;;;;;;;5037526;28;20048;-79
2022/03/02 03:49:48;;;;;;;57.83;22.98;;;;;;;;;;5037455;28;20075;-80
2022/03/02 03:52:13;;;;;;;62.33;25.90;;;;;;;;;;5054948;28;20025;-80
2022/03/02 03:54:39;;;;;;;59.47;26.67;;;;;;;;;;5070485;28;20044;-80
2022/03/02 03:57:04;;;;;;;56.95;24.05;;;;;;;;;;5037385;28;20370;-79
2022/03/02 03:59:30;;;;;;;53.85;22.55;;;;;;;;;;5054953;28;20033;-79
2022/03/02 04:01:55;;;;;;;48.35;22.45;;;;;;;;;;5040102;28;20057;-80
2022/03/02 04:04:21;;;;;;;49.92;22.13;;;;;;;;;;5029015;28;20038;-80
2022/03/02 04:06:46;;;;;;;53.40;21.52;;;;;;;;;;5017294;28;20029;-80
2022/03/02 04:09:12;;;;;;;46.28;21.30;;;;;;;;;;5035117;28;20029;-80
2022/03/02 04:11:38;;;;;;;43.53;20.00;;;;;;;;;;5001260;28;20435;-80
2022/03/02 04:14:04;;;;;;;43.30;19.70;;;;;;;;;;5001278;28;20021;-80
2022/03/02 04:16:30;;;;;;;40.85;20.30;;;;;;;;;;5034951;28;20029;-80
2022/03/02 04:18:55;;;;;;;44.83;19.95;;;;;;;;;;5034812;28;20033;-79
2022/03/02 04:21:21;;;;;;;47.38;20.45;;;;;;;;;;5017121;28;20030;-80
2022/03/02 04:23:46;;;;;;;48.53;22.15;;;;;;;;;;5020319;28;20093;-80
2022/03/02 04:26:12;;;;;;;55.75;24.83;;;;;;;;;;5026719;28;20415;-79
2022/03/02 04:28:37;;;;;;;56.58;23.20;;;;;;;;;;5000876;28;20025;-80
2022/03/02 04:31:03;;;;;;;56.00;24.88;;;;;;;;;;5034706;28;20067;-79
2022/03/02 04:33:28;;;;;;;56.33;24.95;;;;;;;;;;5000733;28;20060;-79
2022/03/02 04:35:54;;;;;;;56.80;24.23;;;;;;;;;;5017223;28;20025;-80
2022/03/02 04:38:19;;;;;;;66.38;25.55;;;;;;;;;;5034417;28;20449;-80
2022/03/02 04:40:45;;;;;;;57.05;24.02;;;;;;;;;;5000940;28;20025;-80
2022/03/02 04:43:10;;;;;;;59.80;23.67;;;;;;;;;;5000530;28;20421;-80
2022/03/02 04:45:36;;;;;;;62.17;25.58;;;;;;;;;;5045641;28;20009;-80
2022/03/02 04:48:02;;;;;;;64.47;26.63;;;;;;;;;;5037796;28;20120;-80
2022/03/02 04:50:28;;;;;;;76.90;31.13;;;;;;;;;;5016711;28;20108;-79
2022/03/02 04:52:56;;;;;;;74.22;30.35;;;;;;;;;;4984330;28;20033;-80
2022/03/02 04:55:22;;;;;;;72.32;29.35;;;;;;;;;;5017172;28;20021;-80
2022/03/02 04:57:49;;;;;;;74.80;29.48;;;;;;;;;;5000316;28;20031;-80
2022/03/02 05:00:16;;;;;;;68.25;27.60;;;;;;;;;;5000124;28;20067;-80
2022/03/02 05:02:41;;;;;;;65.20;27.95;;;;;;;;;;5000748;28;20036;-81
2022/03/02 05:05:08;;;;;;;64.95;27.17;;;;;;;;;;4984244;28;20029;-80
2022/03/02 05:07:34;;;;;;;62.17;27.00;;;;;;;;;;5033150;28;20026;-80
2022/03/02 05:10:00;;;;;;;63.20;27.48;;;;;;;;;;5017140;28;20025;-80
2022/03/02 05:12:25;;;;;;;64.03;26.77;;;;;;;;;;5034056;28;20124;-80
2022/03/02 05:14:51;;;;;;;62.63;26.65;;;;;;;;;;5016596;28;20168;-80
2022/03/02 05:17:16;;;;;;;62.25;25.02;;;;;;;;;;5016446;28;20030;-80
2022/03/02 05:19:42;;;;;;;58.92;24.60;;;;;;;;;;5033665;28;20444;-81
2022/03/02 05:22:07;;;;;;;59.08;26.08;;;;;;;;;;5016558;28;20481;-79
2022/03/02 05:24:33;;;;;;;59.63;26.45;;;;;;;;;;5025986;28;20080;-79
2022/03/02 05:26:58;;;;;;;64.60;25.73;;;;;;;;;;5022312;28;20030;-81
2022/03/02 05:29:24;;;;;;;69.20;26.55;;;;;;;;;;5043478;28;20030;-79
2022/03/02 05:31:52;;;;;;;63.72;27.48;;;;;;;;;;5000047;28;20374;-80
2022/03/02 05:34:18;;;;;;;68.88;26.77;;;;;;;;;;5015242;28;20035;-78
2022/03/02 05:36:43;;;;;;;64.72;25.98;;;;;;;;;;5003763;28;20307;-82
2022/03/02 05:39:09;;;;;;;66.40;27.30;;;;;;;;;;5003746;28;20033;-78
2022/03/02 05:41:35;;;;;;;66.78;27.85;;;;;;;;;;5038045;28;20029;-79
2022/03/02 05:44:02;;;;;;;65.90;26.77;;;;;;;;;;5037561;28;20051;-78
2022/03/02 05:46:28;;;;;;;59.55;26.50;;;;;;;;;;5038629;28;20096;-79
2022/03/02 05:48:53;;;;;;;65.22;27.15;;;;;;;;;;5025256;28;20030;-77
2022/03/02 05:51:20;;;;;;;72.05;29.35;;;;;;;;;;5022335;28;20025;-79
2022/03/02 05:53:45;;;;;;;72.90;29.33;;;;;;;;;;5032660;28;20037;-79
2022/03/02 05:56:12;;;;;;;79.75;31.08;;;;;;;;;;5016684;28;20788;-79
2022/03/02 05:58:37;;;;;;;81.78;30.02;;;;;;;;;;5029529;28;20179;-78
2022/03/02 06:01:03;;;;;;;71.13;28.35;;;;;;;;;;5023622;28;20080;-80
2022/03/02 06:03:29;;;;;;;72.53;27.90;;;;;;;;;;5037879;28;20032;-81
2022/03/02 06:05:55;;;;;;;70.13;27.95;;;;;;;;;;5037133;28;20040;-80
2022/03/02 06:08:21;;;;;;;61.75;26.23;;;;;;;;;;5053200;28;20051;-78
2022/03/02 06:10:47;;;;;;;65.28;25.15;;;;;;;;;;5017116;28;20029;-82
2022/03/02 06:13:14;;;;;;;59.33;25.42;;;;;;;;;;5017643;28;20506;-78
2022/03/02 06:15:40;;;;;;;66.40;27.85;;;;;;;;;;5053465;28;20024;-79
2022/03/02 06:18:06;;;;;;;62.55;28.52;;;;;;;;;;5035014;28;20025;-79
2022/03/02 06:20:32;;;;;;;56.55;24.95;;;;;;;;;;5053579;28;20029;-78
2022/03/02 06:22:58;;;;;;;68.22;28.27;;;;;;;;;;5053723;28;20067;-78
2022/03/02 06:25:24;;;;;;;65.05;27.17;;;;;;;;;;5035616;28;20512;-79
2022/03/02 06:27:49;;;;;;;62.20;26.08;;;;;;;;;;5041262;28;20082;-78
2022/03/02 06:30:15;;;;;;;65.20;26.83;;;;;;;;;;5055025;28;20051;-79
2022/03/02 06:32:40;;;;;;;66.00;26.75;;;;;;;;;;5054604;28;20461;-79
2022/03/02 06:35:06;;;;;;;72.82;28.75;;;;;;;;;;5054348;28;20033;-81
2022/03/02 06:37:33;;;;;;;81.03;32.03;;;;;;;;;;5054978;28;20068;-78
2022/03/02 06:40:06;;;;;;;77.85;32.78;;;;;;;;;;5054300;28;20059;-79
2022/03/02 06:43:00;;;;;;;75.03;30.58;;;;;;;;;;5056524;28;20045;-81
2022/03/02 06:45:56;;;;;;;64.18;26.38;;;;;;;;;;5054548;28;20064;-82
2022/03/02 06:48:45;;;;;;;54.83;24.02;;;;;;;;;;5047030;28;20661;-80
2022/03/02 06:51:12;;;;;;;58.92;24.58;;;;;;;;;;5036466;28;20082;-78
2022/03/02 06:53:38;;;;;;;51.15;22.08;;;;;;;;;;5035485;28;20041;-80
2022/03/02 06:56:05;;;;;;;52.38;22.88;;;;;;;;;;5018280;28;20040;-80
2022/03/02 06:58:51;;;;;;;48.05;21.42;;;;;;;;;;5033687;28;20076;-81
2022/03/02 07:01:32;;;;;;;52.17;23.33;;;;;;;;;;5008476;28;20110;-81
2022/03/02 07:04:01;;;;;;;;;;;;;;;;;;5001252;28;20107;-79
2022/03/02 07:06:27;;;;;;;49.55;21.42;;;;;;;;;;5035963;28;20681;-78
2022/03/02 07:08:54;;;;;;;50.80;22.63;;;;;;;;;;5033601;28;20025;-79
2022/03/02 07:11:20;;;;;;;54.72;22.92;;;;;;;;;;5014651;28;20115;-78
2022/03/02 07:13:46;;;;;;;59.97;27.02;;;;;;;;;;5015563;28;20121;-80
2022/03/02 07:16:12;;;;;;;48.90;23.20;;;;;;;;;;5015478;28;20444;-82
2022/03/02 07:18:38;;;;;;;47.97;22.63;;;;;;;;;;5016392;28;20037;-85
2022/03/02 07:21:11;;;;;;;47.03;21.70;;;;;;;;;;5001736;28;20026;-82
2022/03/02 07:24:02;;;;;;;47.30;23.73;;;;;;;;;;5018841;28;20022;-79
2022/03/02 07:26:31;;;;;;;56.25;26.80;;;;;;;;;;5024329;28;20040;-83
2022/03/02 07:28:57;;;;;;;50.38;26.27;;;;;;;;;;5002763;28;20443;-81
2022/03/02 07:31:22;;;;;;;45.10;23.90;;;;;;;;;;5002236;28;20029;-82
2022/03/02 07:33:49;;;;;;;47.95;24.65;;;;;;;;;;5002133;28;20056;-83
2022/03/02 07:36:16;;;;;;;37.55;20.50;;;;;;;;;;5002999;28;20458;-87
2022/03/02 07:38:44;;;;;;;38.40;20.60;;;;;;;;;;5003311;28;20061;-85
2022/03/02 07:41:10;;;;;;;38.60;21.95;;;;;;;;;;5018847;28;20482;-83
2022/03/02 07:43:41;;;;;;;40.55;21.42;;;;;;;;;;5047597;28;20025;-83
2022/03/02 07:46:13;;;;;;;41.53;22.40;;;;;;;;;;5012629;28;20103;-84
2022/03/02 07:48:39;;;;;;;41.33;21.98;;;;;;;;;;5014095;28;20029;-84
2022/03/02 07:51:09;;;;;;;49.63;27.65;;;;;;;;;;4997754;28;20029;-83
2022/03/02 07:53:41;;;;;;;53.47;31.20;;;;;;;;;;5012329;28;20036;-83
2022/03/02 07:56:14;;;;;;;48.28;24.70;;;;;;;;;;4997184;28;20299;-84
2022/03/02 07:58:45;;;;;;;36.70;19.30;;;;;;;;;;4981577;28;20041;-82
2022/03/02 08:01:22;;;;;;;41.55;18.55;;;;;;;;;;5025470;28;20122;-83
2022/03/02 08:03:48;;;;;;;38.67;20.42;;;;;;;;;;5026384;28;20056;-82
2022/03/02 08:06:36;;;;;;;33.58;18.63;;;;;;;;;;5040727;28;20470;-81
2022/03/02 08:09:03;;;;;;;36.35;19.33;;;;;;;;;;5049377;28;20032;-78
2022/03/02 08:11:31;;;;;;;43.67;22.15;;;;;;;;;;5033502;28;20140;-83
2022/03/02 08:13:56;;;;;;;33.85;17.83;;;;;;;;;;5018232;28;20226;-81
2022/03/02 08:16:22;;;;;;;33.63;17.23;;;;;;;;;;5033903;28;20796;-82
2022/03/02 08:18:47;;;;;;;29.42;15.23;;;;;;;;;;5030975;28;20040;-79
2022/03/02 08:21:13;;;;;;;47.58;20.55;;;;;;;;;;5043391;28;20028;-81
2022/03/02 08:23:39;;;;;;;48.95;22.17;;;;;;;;;;5018339;28;20041;-80
2022/03/02 08:26:04;;;;;;;46.20;22.65;;;;;;;;;;5020502;28;20441;-82
2022/03/02 08:28:33;;;;;;;47.95;23.63;;;;;;;;;;5029726;28;20135;-83
2022/03/02 08:31:01;;;;;;;59.83;25.40;;;;;;;;;;5052950;28;20412;-80
2022/03/02 08:33:33;;;;;;;35.78;17.52;;;;;;;;;;5013957;28;20347;-83
2022/03/02 08:36:03;;;;;;;35.33;17.50;;;;;;;;;;5042585;28;20029;-81
2022/03/02 08:38:28;;;;;;;39.70;22.42;;;;;;;;;;5029403;28;20029;-83
2022/03/02 08:40:56;;;;;;;33.97;18.92;;;;;;;;;;5012931;28;20025;-85
2022/03/02 08:43:22;;;;;;;32.40;16.67;;;;;;;;;;4999681;28;20084;-84
2022/03/02 08:45:49;;;;;;;31.58;16.08;;;;;;;;;;5007169;28;20512;-83
2022/03/02 08:48:18;;;;;;;31.33;16.67;;;;;;;;;;5030860;28;20299;-81
2022/03/02 08:50:44;;;;;;;37.83;17.23;;;;;;;;;;5047194;28;20025;-82
2022/03/02 08:53:14;;;;;;;26.80;15.25;;;;;;;;;;5012212;28;20358;-84
2022/03/02 08:55:40;;;;;;;30.25;16.08;;;;;;;;;;5016370;28;20024;-83
2022/03/02 08:58:05;;;;;;;37.38;17.98;;;;;;;;;;5012737;28;20117;-81
2022/03/02 09:01:09;;;;;;;24.98;13.48;;;;;;;;;;5011243;28;20037;-84
2022/03/02 09:03:35;;;;;;;22.92;12.65;;;;;;;;;;5013802;28;20475;-83
2022/03/02 09:06:25;;;;;;;24.65;13.77;;;;;;;;;;5017327;28;20048;-84
2022/03/02 09:08:50;;;;;;;23.73;11.75;;;;;;;;;;4981064;28;20045;-85
2022/03/02 09:11:55;;;;;;;31.15;14.90;;;;;;;;;;4981181;28;20040;-84
2022/03/02 09:14:24;;;;;;;42.28;19.13;;;;;;;;;;4935482;29;20035;-83
2022/03/02 09:16:53;;;;;;;37.80;15.38;;;;;;;;;;4937013;29;20023;-85
2022/03/02 09:19:19;;;;;;;42.75;22.75;;;;;;;;;;4993604;28;20043;-77
2022/03/02 09:21:44;;;;;;;35.28;18.02;;;;;;;;;;5031941;28;20104;-78
2022/03/02 09:24:10;;;;;;;40.70;22.02;;;;;;;;;;5037505;28;20021;-78
2022/03/02 09:26:51;;;;;;;38.25;19.95;;;;;;;;;;5036660;28;20029;-79
2022/03/02 09:29:18;;;;;;;25.40;14.05;;;;;;;;;;5005499;28;20049;-83
2022/03/02 09:31:44;;;;;;;34.22;16.15;;;;;;;;;;5017124;28;20036;-83
2022/03/02 09:34:10;;;;;;;30.05;16.00;;;;;;;;;;5006497;28;20053;-82
2022/03/02 09:40:18;;;;;;;27.15;13.52;;;;;;;;;;5040920;22;20095;-85
2022/03/02 09:49:23;;;;;;;39.65;17.10;;;;;;;;;;5082283;22;20061;-84
2022/03/02 09:51:54;;;;;;;30.60;12.90;;;;;;;;;;5091586;28;20059;-86
2022/03/02 09:54:21;;;;;;;27.13;11.45;;;;;;;;;;5081312;28;20036;-84
2022/03/02 09:56:51;;;;;;;25.73;13.00;;;;;;;;;;5038847;28;20200;-81
2022/03/02 09:59:17;;;;;;;29.83;14.00;;;;;;;;;;5062660;28;20510;-84
2022/03/02 10:01:44;;;;;;;26.55;13.90;;;;;;;;;;5070043;28;20069;-82
2022/03/02 10:04:26;;;;;;;23.17;11.73;;;;;;;;;;5043056;28;20017;-82
2022/03/02 10:07:26;;;;;;;28.17;12.52;;;;;;;;;;5055206;28;20024;-82
2022/03/02 10:09:41;;;;;;;27.40;11.55;;;;;;;;;;5041126;28;20216;-83
2022/03/02 10:12:07;;;;;;;25.55;13.13;;;;;;;;;;5036129;28;20461;-82
2022/03/02 10:14:32;;;;;;;24.90;13.25;;;;;;;;;;5018320;28;20085;-83
2022/03/02 10:16:58;;;;;;;38.47;16.33;;;;;;;;;;5052866;28;20476;-81
2022/03/02 10:19:23;;;;;;;28.70;13.38;;;;;;;;;;5036710;28;20063;-83
2022/03/02 10:22:00;;;;;;;29.08;12.30;;;;;;;;;;5039362;28;20056;-81
2022/03/02 10:24:25;;;;;;;43.65;18.17;;;;;;;;;;5065994;28;20048;-78
2022/03/02 10:26:51;;;;;;;35.83;15.77;;;;;;;;;;5041725;28;20021;-78
2022/03/02 10:29:25;;;;;;;35.20;16.08;;;;;;;;;;5076582;28;20347;-79
2022/03/02 10:32:09;;;;;;;27.23;11.57;;;;;;;;;;5059206;28;20024;-79
2022/03/02 10:34:36;;;;;;;37.30;16.45;;;;;;;;;;5077211;28;20033;-78
2022/03/02 10:37:23;;;;;;;29.60;14.00;;;;;;;;;;5062817;28;20035;-77
2022/03/02 10:39:51;;;;;;;27.20;10.88;;;;;;;;;;5055855;28;20032;-77
2022/03/02 10:45:55;;;;;;;25.08;10.75;;;;;;;;;;5053848;28;20033;-80
2022/03/02 10:48:38;;;;;;;23.95;10.98;;;;;;;;;;5092220;28;20051;-80
2022/03/02 10:51:11;;;;;;;22.63;10.38;;;;;;;;;;5068147;28;20035;-83
2022/03/02 10:57:16;;;;;;;81.10;34.88;;;;;;;;;;4998789;28;20037;-81
2022/03/02 10:59:43;;;;;;;27.98;11.57;;;;;;;;;;5075046;28;20020;-82
2022/03/02 11:02:09;;;;;;;43.65;19.70;;;;;;;;;;5072821;28;20025;-76
2022/03/02 11:04:34;;;;;;;37.75;20.90;;;;;;;;;;5073431;28;20027;-78
2022/03/02 11:07:00;;;;;;;30.27;15.35;;;;;;;;;;5052880;28;20664;-77
2022/03/02 11:09:27;;;;;;;24.67;11.13;;;;;;;;;;5071749;28;20032;-81
2022/03/02 11:11:53;;;;;;;21.30;10.15;;;;;;;;;;5036929;28;20056;-80
2022/03/02 11:14:18;;;;;;;25.08;9.25;;;;;;;;;;5038252;28;20044;-86
2022/03/02 11:16:46;;;;;;;21.73;10.25;;;;;;;;;;5067969;28;20024;-80
2022/03/02 11:19:15;;;;;;;27.48;10.15;;;;;;;;;;5054949;28;20071;-79
2022/03/02 11:21:42;;;;;;;37.97;16.70;;;;;;;;;;5092354;28;20055;-78
2022/03/02 11:24:09;;;;;;;54.38;23.00;;;;;;;;;;5046908;28;20028;-81
2022/03/02 11:26:41;;;;;;;21.63;10.88;;;;;;;;;;5053763;28;20033;-78
2022/03/02 11:29:10;;;;;;;25.23;11.02;;;;;;;;;;5054534;28;20365;-76
2022/03/02 11:31:44;;;;;;;24.20;9.73;;;;;;;;;;5073238;28;20032;-79
2022/03/02 11:34:19;;;;;;;28.85;13.50;;;;;;;;;;5075015;28;20022;-79
2022/03/02 11:36:55;;;;;;;26.42;11.57;;;;;;;;;;5090046;28;20193;-78
2022/03/02 11:39:23;;;;;;;25.42;11.90;;;;;;;;;;5056439;28;20020;-77
2022/03/02 11:41:57;;;;;;;26.58;11.30;;;;;;;;;;5073623;28;20032;-79
2022/03/02 11:44:35;;;;;;;23.58;10.85;;;;;;;;;;5061409;28;20501;-77
2022/03/02 11:47:05;;;;;;;23.88;9.82;;;;;;;;;;5069809;28;20053;-79
2022/03/02 11:49:53;;;;;;;28.42;11.10;;;;;;;;;;5051761;28;20038;-80
2022/03/02 11:52:20;;;;;;;30.33;11.65;;;;;;;;;;5073983;28;20097;-77
2022/03/02 11:54:56;;;;;;;24.08;10.82;;;;;;;;;;5063518;28;20027;-76
2022/03/02 11:57:22;;;;;;;20.02;9.07;;;;;;;;;;5049533;28;20120;-77
2022/03/02 11:59:48;;;;;;;25.23;9.43;;;;;;;;;;5031378;28;20032;-79
2022/03/02 12:02:20;;;;;;;29.70;10.50;;;;;;;;;;5044532;28;20101;-77
2022/03/02 12:04:59;;;;;;;23.58;10.45;;;;;;;;;;5078302;28;20020;-78
2022/03/02 12:07:25;;;;;;;26.27;10.65;;;;;;;;;;5073460;28;20038;-78
2022/03/02 12:09:50;;;;;;;22.15;10.23;;;;;;;;;;5072648;28;20029;-82
2022/03/02 12:12:20;;;;;;;19.52;8.25;;;;;;;;;;5055473;28;20107;-85
2022/03/02 12:14:49;;;;;;;22.50;9.98;;;;;;;;;;5054842;28;20052;-83
2022/03/02 12:17:16;;;;;;;18.80;9.40;;;;;;;;;;5056199;28;20481;-79
2022/03/02 12:19:50;;;;;;;20.33;9.18;;;;;;;;;;5073619;28;20033;-81
2022/03/02 12:22:17;;;;;;;20.20;8.88;;;;;;;;;;5055829;28;20027;-83
2022/03/02 12:24:54;;;;;;;23.30;8.70;;;;;;;;;;5065270;28;20097;-82
2022/03/02 12:27:20;;;;;;;21.98;8.50;;;;;;;;;;5072615;28;20024;-80
2022/03/02 12:30:07;;;;;;;23.05;8.00;;;;;;;;;;5075929;28;20460;-81
2022/03/02 12:32:37;;;;;;;18.80;8.32;;;;;;;;;;5093841;28;20477;-84
2022/03/02 12:35:07;;;;;;;15.52;7.68;;;;;;;;;;5091956;28;20040;-79
2022/03/02 12:37:33;;;;;;;;;;;;;;;;;;5075882;28;20069;-82
2022/03/02 12:39:59;;;;;;;14.73;7.13;;;;;;;;;;5075671;28;20314;-80
2022/03/02 12:42:25;;;;;;;19.10;8.27;;;;;;;;;;5092541;28;20032;-81
2022/03/02 12:44:54;;;;;;;36.80;15.50;;;;;;;;;;5102479;28;20032;-80
2022/03/02 12:47:22;;;;;;;35.67;14.40;;;;;;;;;;5072924;28;20469;-83
2022/03/02 12:49:51;;;;;;;79.82;31.13;;;;;;;;;;5058518;28;20152;-80
2022/03/02 12:52:20;;;;;;;58.65;24.88;;;;;;;;;;5079323;28;20044;-83
2022/03/02 12:54:48;;;;;;;135.25;53.95;;;;;;;;;;5084946;28;20039;-81
2022/03/02 12:57:14;;;;;;;58.60;21.80;;;;;;;;;;5058012;28;20043;-80
2022/03/02 12:59:40;;;;;;;73.40;28.60;;;;;;;;;;5070615;28;20032;-80
2022/03/02 13:02:08;;;;;;;37.00;15.70;;;;;;;;;;5070746;28;20028;-80
2022/03/02 13:04:51;;;;;;;31.55;13.18;;;;;;;;;;5064601;28;20066;-80
2022/03/02 13:07:34;;;;;;;28.17;12.32;;;;;;;;;;5089977;28;20052;-80
2022/03/02 13:10:20;;;;;;;34.65;14.40;;;;;;;;;;5055621;28;20033;-83
2022/03/02 13:12:51;;;;;;;17.20;8.40;;;;;;;;;;5090260;28;20131;-85
2022/03/02 13:15:32;;;;;;;26.63;12.93;;;;;;;;;;5070262;28;20956;-83
2022/03/02 13:18:26;;;;;;;27.90;12.07;;;;;;;;;;5053979;28;20126;-81
2022/03/02 13:21:01;;;;;;;23.63;11.23;;;;;;;;;;5052790;28;20044;-81
2022/03/02 13:23:31;;;;;;;24.67;9.93;;;;;;;;;;5072983;28;20458;-79
2022/03/02 13:25:59;;;;;;;24.30;10.30;;;;;;;;;;5067883;28;20028;-80
2022/03/02 13:28:32;;;;;;;18.90;8.90;;;;;;;;;;5074015;28;20115;-81
2022/03/02 13:31:16;;;;;;;21.10;9.35;;;;;;;;;;5072200;28;20028;-79
2022/03/02 13:33:57;;;;;;;21.92;8.40;;;;;;;;;;5073614;28;20107;-79
2022/03/02 13:36:39;;;;;;;26.17;9.75;;;;;;;;;;5072771;28;20033;-79
2022/03/02 13:39:15;;;;;;;25.15;10.93;;;;;;;;;;5071474;28;20040;-83
2022/03/02 13:42:17;;;;;;;38.95;15.77;;;;;;;;;;5054027;28;20389;-79
2022/03/02 13:44:44;;;;;;;28.15;13.13;;;;;;;;;;5058177;28;20347;-80
2022/03/02 13:47:13;;;;;;;24.10;9.85;;;;;;;;;;5077370;28;20522;-78
2022/03/02 13:49:49;;;;;;;30.15;11.57;;;;;;;;;;5072076;28;20466;-78
2022/03/02 13:52:26;;;;;;;31.50;12.13;;;;;;;;;;5073540;28;20020;-78
2022/03/02 13:54:52;;;;;;;43.03;15.55;;;;;;;;;;5074026;28;20071;-81
2022/03/02 13:57:18;;;;;;;35.42;14.23;;;;;;;;;;5075120;28;20060;-81
2022/03/02 13:59:44;;;;;;;35.30;13.27;;;;;;;;;;5077327;28;20391;-82
2022/03/02 14:02:10;;;;;;;34.70;11.60;;;;;;;;;;5075997;28;20115;-80
2022/03/02 14:04:47;;;;;;;29.20;11.27;;;;;;;;;;5093035;28;20029;-80
2022/03/02 14:07:13;;;;;;;26.73;10.18;;;;;;;;;;5103259;28;20029;-80
2022/03/02 14:09:38;;;;;;;45.65;19.38;;;;;;;;;;5059173;28;20515;-80
2022/03/02 14:12:05;;;;;;;41.17;18.55;;;;;;;;;;5059111;28;20026;-82
2022/03/02 14:14:32;;;;;;;88.65;42.50;;;;;;;;;;5075720;28;20036;-79
2022/03/02 14:17:01;;;;;;;39.70;17.75;;;;;;;;;;5076652;28;20441;-80
2022/03/02 14:19:29;;;;;;;64.93;28.63;;;;;;;;;;5058818;28;20052;-79
2022/03/02 14:22:05;;;;;;;31.48;12.85;;;;;;;;;;5077220;28;20032;-79
2022/03/02 14:24:33;;;;;;;42.45;20.15;;;;;;;;;;5059071;28;20541;-82
2022/03/02 14:27:02;;;;;;;34.03;15.93;;;;;;;;;;5054549;28;20011;-82
2022/03/02 14:29:29;;;;;;;35.63;13.13;;;;;;;;;;5092321;28;20032;-81
2022/03/02 14:32:03;;;;;;;35.05;15.52;;;;;;;;;;5075472;28;20028;-82
2022/03/02 14:34:51;;;;;;;31.38;13.70;;;;;;;;;;5058893;28;20047;-81
2022/03/02 14:37:22;;;;;;;28.15;11.70;;;;;;;;;;5076613;28;20089;-81
2022/03/02 14:40:05;;;;;;;36.47;14.57;;;;;;;;;;5076881;28;20043;-81
2022/03/02 14:42:31;;;;;;;36.28;14.43;;;;;;;;;;5076271;28;20020;-80
2022/03/02 14:45:10;;;;;;;53.85;22.50;;;;;;;;;;5076679;28;20120;-78